Time;durP1;ratioP1;P1;durP2;ratioP2;P2;SDS_P1;SDS_P2;PMS_P1;PMS_P2;Temp;Humidity;BMP_temperature;BMP_pressure;BME280_temperature;BME280_humidity;BME280_pressure;Samples;Min_cycle;Max_cycle;Signal;HPM_P1;HPM_P2
2023/04/23 00:00:10;;;;;;;10.23;9.23;;;;;;;;;;5055697;28;20216;-93
2023/04/23 00:02:38;;;;;;;12.02;10.82;;;;;;;;;;5044285;28;20215;-92
2023/04/23 00:05:07;;;;;;;10.25;9.30;;;;;;;;;;5050079;28;20200;-91
2023/04/23 00:07:35;;;;;;;11.55;10.55;;;;;;;;;;5063896;28;20298;-92
2023/04/23 00:10:04;;;;;;;12.73;11.55;;;;;;;;;;5047356;28;20214;-92
2023/04/23 00:12:33;;;;;;;13.83;12.43;;;;;;;;;;5046984;28;20203;-93
2023/04/23 00:15:01;;;;;;;12.87;11.57;;;;;;;;;;5054473;28;20205;-93
2023/04/23 00:17:29;;;;;;;9.30;8.60;;;;;;;;;;5055612;28;20200;-92
2023/04/23 00:19:56;;;;;;;12.15;10.85;;;;;;;;;;5048654;28;20231;-92
2023/04/23 00:22:23;;;;;;;13.20;11.98;;;;;;;;;;5051704;28;20206;-93
2023/04/23 00:24:51;;;;;;;12.55;11.38;;;;;;;;;;5053729;28;20198;-93
2023/04/23 00:27:19;;;;;;;9.55;8.75;;;;;;;;;;5049401;28;20200;-93
2023/04/23 00:29:50;;;;;;;11.20;10.02;;;;;;;;;;5047198;28;20287;-92
2023/04/23 00:32:17;;;;;;;12.68;11.32;;;;;;;;;;5035785;28;20207;-93
2023/04/23 00:34:47;;;;;;;13.05;11.85;;;;;;;;;;5041964;28;20407;-93
2023/04/23 00:37:15;;;;;;;12.02;10.93;;;;;;;;;;5051695;28;20208;-93
2023/04/23 00:39:42;;;;;;;11.82;10.73;;;;;;;;;;5054861;28;20227;-93
2023/04/23 00:42:11;;;;;;;12.02;10.50;;;;;;;;;;5054072;28;20286;-93
2023/04/23 00:44:39;;;;;;;11.98;10.90;;;;;;;;;;5054901;28;20211;-92
2023/04/23 00:47:08;;;;;;;10.63;9.70;;;;;;;;;;5054745;28;20203;-92
2023/04/23 00:49:35;;;;;;;11.05;10.05;;;;;;;;;;5053623;28;20213;-93
2023/04/23 00:52:03;;;;;;;11.13;10.10;;;;;;;;;;5068478;28;20233;-92
2023/04/23 00:54:30;;;;;;;11.35;10.35;;;;;;;;;;5042528;28;20214;-93
2023/04/23 00:56:58;;;;;;;10.80;9.85;;;;;;;;;;5049556;28;20207;-93
2023/04/23 00:59:26;;;;;;;10.07;9.18;;;;;;;;;;5047317;28;20232;-93
2023/04/23 01:01:53;;;;;;;11.18;10.00;;;;;;;;;;5039863;28;20223;-93
2023/04/23 01:04:23;;;;;;;11.77;9.60;;;;;;;;;;5051033;28;20199;-92
2023/04/23 01:06:50;;;;;;;11.60;8.98;;;;;;;;;;5050596;28;20214;-92
2023/04/23 01:09:18;;;;;;;7.55;6.85;;;;;;;;;;5040788;28;20295;-92
2023/04/23 01:11:47;;;;;;;8.93;8.20;;;;;;;;;;5046858;28;20199;-91
2023/04/23 01:14:15;;;;;;;8.70;7.97;;;;;;;;;;5051990;28;20204;-93
2023/04/23 01:16:42;;;;;;;8.20;7.47;;;;;;;;;;5054457;28;20259;-93
2023/04/23 01:19:10;;;;;;;8.85;8.05;;;;;;;;;;5051761;28;20204;-92
2023/04/23 01:21:40;;;;;;;7.78;7.07;;;;;;;;;;5047761;28;20203;-93
2023/04/23 01:24:10;;;;;;;7.40;6.70;;;;;;;;;;5049912;28;20208;-92
2023/04/23 01:26:38;;;;;;;7.90;7.30;;;;;;;;;;5050311;28;20200;-93
2023/04/23 01:29:05;;;;;;;8.80;8.07;;;;;;;;;;5047628;28;20274;-91
2023/04/23 01:31:33;;;;;;;8.88;8.05;;;;;;;;;;5051810;28;20235;-92
2023/04/23 01:34:01;;;;;;;8.93;8.13;;;;;;;;;;5050371;28;20223;-91
2023/04/23 01:36:28;;;;;;;8.30;7.50;;;;;;;;;;5043927;28;20203;-93
2023/04/23 01:38:56;;;;;;;8.13;7.33;;;;;;;;;;5042244;28;20207;-93
2023/04/23 01:41:24;;;;;;;7.88;7.07;;;;;;;;;;5050394;28;20233;-93
2023/04/23 01:43:52;;;;;;;8.90;7.72;;;;;;;;;;5041150;28;20210;-92
2023/04/23 01:46:21;;;;;;;8.37;7.57;;;;;;;;;;5043593;28;20203;-93
2023/04/23 01:48:48;;;;;;;7.03;6.40;;;;;;;;;;5046297;28;20298;-93
2023/04/23 01:51:15;;;;;;;8.93;7.55;;;;;;;;;;5044551;28;20290;-92
2023/04/23 01:53:43;;;;;;;7.03;6.37;;;;;;;;;;5044405;28;20211;-93
2023/04/23 01:56:10;;;;;;;7.95;7.15;;;;;;;;;;5049256;28;20204;-93
2023/04/23 01:58:39;;;;;;;7.70;7.00;;;;;;;;;;5050198;28;20210;-93
2023/04/23 02:01:06;;;;;;;8.90;7.77;;;;;;;;;;5052147;28;20309;-93
2023/04/23 02:03:34;;;;;;;8.80;8.00;;;;;;;;;;5049847;28;20291;-93
2023/04/23 02:06:03;;;;;;;9.13;8.20;;;;;;;;;;5044140;28;20278;-93
2023/04/23 02:08:31;;;;;;;8.27;7.57;;;;;;;;;;5044178;28;20207;-91
2023/04/23 02:10:58;;;;;;;7.23;6.10;;;;;;;;;;5041616;28;20210;-93
2023/04/23 02:13:25;;;;;;;7.70;7.03;;;;;;;;;;5050674;28;20482;-93
2023/04/23 02:15:54;;;;;;;7.60;7.00;;;;;;;;;;5052569;28;20235;-92
2023/04/23 02:18:21;;;;;;;9.77;8.87;;;;;;;;;;5053066;28;20267;-91
2023/04/23 02:20:48;;;;;;;9.70;8.87;;;;;;;;;;5044278;28;20216;-92
2023/04/23 02:23:16;;;;;;;7.38;6.68;;;;;;;;;;5042908;28;20291;-93
2023/04/23 02:25:43;;;;;;;9.90;9.00;;;;;;;;;;5039955;28;20206;-92
2023/04/23 02:28:12;;;;;;;9.37;8.53;;;;;;;;;;5047796;28;20204;-93
2023/04/23 02:30:44;;;;;;;8.53;7.73;;;;;;;;;;5052132;28;20238;-93
2023/04/23 02:33:12;;;;;;;11.20;10.20;;;;;;;;;;5047573;28;20206;-92
2023/04/23 02:35:40;;;;;;;11.35;10.35;;;;;;;;;;5047713;28;20199;-93
2023/04/23 02:38:08;;;;;;;11.03;9.50;;;;;;;;;;5051344;28;20195;-92
2023/04/23 02:40:35;;;;;;;11.80;10.70;;;;;;;;;;5048050;28;20223;-93
2023/04/23 02:43:02;;;;;;;8.93;8.03;;;;;;;;;;5045675;28;20218;-92
2023/04/23 02:45:30;;;;;;;8.05;7.30;;;;;;;;;;5048437;28;20263;-93
2023/04/23 02:47:57;;;;;;;10.75;9.65;;;;;;;;;;5052068;28;20210;-93
2023/04/23 02:50:26;;;;;;;11.20;10.10;;;;;;;;;;5044948;28;20280;-90
2023/04/23 02:52:54;;;;;;;8.65;7.95;;;;;;;;;;5047536;28;20290;-92
2023/04/23 02:55:24;;;;;;;9.83;8.97;;;;;;;;;;5050819;28;20306;-93
2023/04/23 02:57:51;;;;;;;8.73;8.03;;;;;;;;;;5047587;28;20206;-92
2023/04/23 03:00:18;;;;;;;9.47;8.60;;;;;;;;;;5045561;28;20250;-92
2023/04/23 03:02:46;;;;;;;9.23;8.43;;;;;;;;;;5046094;28;20242;-93
2023/04/23 03:05:13;;;;;;;9.27;8.37;;;;;;;;;;5041051;28;20208;-92
2023/04/23 03:07:42;;;;;;;9.40;8.50;;;;;;;;;;5048102;28;20200;-93
2023/04/23 03:10:09;;;;;;;10.23;9.23;;;;;;;;;;5041307;28;20204;-93
2023/04/23 03:12:37;;;;;;;9.77;8.80;;;;;;;;;;5047326;28;20207;-92
2023/04/23 03:15:04;;;;;;;9.10;8.13;;;;;;;;;;5048426;28;20199;-91
2023/04/23 03:17:32;;;;;;;9.00;7.77;;;;;;;;;;5046394;28;20242;-93
2023/04/23 03:20:00;;;;;;;8.90;8.10;;;;;;;;;;5041581;28;20207;-92
2023/04/23 03:22:27;;;;;;;8.93;8.13;;;;;;;;;;5049740;28;20309;-92
2023/04/23 03:24:56;;;;;;;9.17;8.37;;;;;;;;;;5052213;28;20259;-92
2023/04/23 03:27:23;;;;;;;7.83;7.03;;;;;;;;;;5049025;28;20231;-92
2023/04/23 03:29:50;;;;;;;8.43;7.63;;;;;;;;;;5047671;28;20206;-92
2023/04/23 03:32:18;;;;;;;6.27;5.67;;;;;;;;;;5042185;28;20299;-92
2023/04/23 03:34:45;;;;;;;8.37;7.33;;;;;;;;;;5043591;28;20204;-93
2023/04/23 03:37:12;;;;;;;7.45;6.88;;;;;;;;;;5051197;28;20199;-93
2023/04/23 03:39:40;;;;;;;9.30;8.03;;;;;;;;;;5041950;28;20200;-92
2023/04/23 03:42:08;;;;;;;8.77;7.97;;;;;;;;;;5044970;28;20240;-91
2023/04/23 03:44:36;;;;;;;7.03;6.43;;;;;;;;;;5044875;28;20207;-90
2023/04/23 03:47:03;;;;;;;7.87;7.07;;;;;;;;;;5041888;28;20214;-92
2023/04/23 03:49:30;;;;;;;8.03;7.33;;;;;;;;;;5048084;28;20214;-91
2023/04/23 03:51:57;;;;;;;8.07;7.23;;;;;;;;;;5049641;28;20216;-90
2023/04/23 03:54:27;;;;;;;7.57;6.87;;;;;;;;;;5051882;28;20299;-92
2023/04/23 03:56:56;;;;;;;7.27;5.87;;;;;;;;;;5046490;28;20208;-93
2023/04/23 03:59:25;;;;;;;6.70;6.10;;;;;;;;;;5049821;28;20280;-91
2023/04/23 04:01:52;;;;;;;7.90;7.10;;;;;;;;;;5051086;28;20246;-90
2023/04/23 04:04:19;;;;;;;9.83;8.33;;;;;;;;;;5042105;28;20204;-92
2023/04/23 04:06:47;;;;;;;7.67;7.00;;;;;;;;;;5051003;28;20217;-92
2023/04/23 04:09:14;;;;;;;7.20;6.60;;;;;;;;;;5050618;28;20209;-93
2023/04/23 04:11:42;;;;;;;8.33;7.63;;;;;;;;;;5054391;28;20294;-92
2023/04/23 04:14:09;;;;;;;9.20;7.90;;;;;;;;;;5045927;28;20271;-92
2023/04/23 04:16:38;;;;;;;9.70;8.90;;;;;;;;;;5046628;28;20207;-93
2023/04/23 04:19:05;;;;;;;7.30;6.40;;;;;;;;;;5050675;28;20208;-92
2023/04/23 04:21:32;;;;;;;8.40;7.10;;;;;;;;;;5040486;28;20231;-92
2023/04/23 04:24:01;;;;;;;8.30;7.60;;;;;;;;;;5042555;28;20199;-92
2023/04/23 04:26:28;;;;;;;8.90;8.17;;;;;;;;;;5050732;28;20292;-91
2023/04/23 04:28:57;;;;;;;8.60;7.70;;;;;;;;;;5040301;28;20208;-91
2023/04/23 04:31:24;;;;;;;8.43;7.60;;;;;;;;;;5051273;28;20235;-92
2023/04/23 04:33:54;;;;;;;6.97;6.37;;;;;;;;;;5048398;28;20214;-92
2023/04/23 04:36:21;;;;;;;6.97;6.27;;;;;;;;;;5054774;28;20238;-93
2023/04/23 04:38:50;;;;;;;7.13;6.43;;;;;;;;;;5051029;28;20207;-93
2023/04/23 04:41:18;;;;;;;9.53;7.50;;;;;;;;;;5045197;28;20224;-93
2023/04/23 04:43:47;;;;;;;6.40;5.90;;;;;;;;;;5050090;28;20210;-93
2023/04/23 04:46:14;;;;;;;5.88;5.38;;;;;;;;;;5043564;28;20268;-92
2023/04/23 04:48:42;;;;;;;7.93;7.23;;;;;;;;;;5049574;28;20286;-92
2023/04/23 04:51:10;;;;;;;9.77;6.63;;;;;;;;;;5044178;28;20219;-92
2023/04/23 04:53:38;;;;;;;8.32;7.53;;;;;;;;;;5053962;28;20271;-93
2023/04/23 04:56:05;;;;;;;6.43;5.80;;;;;;;;;;5045212;28;20271;-91
2023/04/23 04:58:33;;;;;;;7.93;7.17;;;;;;;;;;5044942;28;20203;-91
2023/04/23 05:01:00;;;;;;;7.30;5.60;;;;;;;;;;5047978;28;20222;-93
2023/04/23 05:03:28;;;;;;;5.80;5.30;;;;;;;;;;5048594;28;20211;-93
2023/04/23 05:05:55;;;;;;;6.47;5.00;;;;;;;;;;5047889;28;20263;-91
2023/04/23 05:08:24;;;;;;;6.33;5.73;;;;;;;;;;5048548;28;20211;-92
2023/04/23 05:10:52;;;;;;;7.23;6.53;;;;;;;;;;5041961;28;20224;-91
2023/04/23 05:13:20;;;;;;;7.25;6.47;;;;;;;;;;5046910;28;20270;-92
2023/04/23 05:15:47;;;;;;;6.88;6.18;;;;;;;;;;5045821;28;20302;-93
2023/04/23 05:18:15;;;;;;;7.18;6.57;;;;;;;;;;5048310;28;20214;-93
2023/04/23 05:20:42;;;;;;;7.20;6.27;;;;;;;;;;5052368;28;20228;-93
2023/04/23 05:23:09;;;;;;;6.70;6.00;;;;;;;;;;5048779;28;20212;-92
2023/04/23 05:25:38;;;;;;;6.80;6.10;;;;;;;;;;5051527;28;20211;-93
2023/04/23 05:28:07;;;;;;;6.90;6.40;;;;;;;;;;5047458;28;20207;-92
2023/04/23 05:30:35;;;;;;;8.77;8.07;;;;;;;;;;5041618;28;20318;-93
2023/04/23 05:33:02;;;;;;;7.07;6.30;;;;;;;;;;5042743;28;20208;-91
2023/04/23 05:35:30;;;;;;;7.60;6.50;;;;;;;;;;5045576;28;20206;-93
2023/04/23 05:37:58;;;;;;;6.97;6.28;;;;;;;;;;5047391;28;20253;-92
2023/04/23 05:40:25;;;;;;;9.03;7.40;;;;;;;;;;5043808;28;20243;-92
2023/04/23 05:42:54;;;;;;;8.00;6.80;;;;;;;;;;5051400;28;20202;-92
2023/04/23 05:45:22;;;;;;;7.53;6.93;;;;;;;;;;5048519;28;20208;-92
2023/04/23 05:47:50;;;;;;;6.70;6.10;;;;;;;;;;5049527;28;20286;-92
2023/04/23 05:50:17;;;;;;;6.40;5.80;;;;;;;;;;5047451;28;20199;-93
2023/04/23 05:52:45;;;;;;;7.07;6.05;;;;;;;;;;5045110;28;20199;-92
2023/04/23 05:55:14;;;;;;;7.87;6.37;;;;;;;;;;5045211;28;20203;-92
2023/04/23 05:57:41;;;;;;;8.55;6.35;;;;;;;;;;5041461;28;20200;-92
2023/04/23 06:00:11;;;;;;;5.93;5.32;;;;;;;;;;5042532;28;20238;-92
2023/04/23 06:02:39;;;;;;;6.55;5.95;;;;;;;;;;5049887;28;20227;-92
2023/04/23 06:05:06;;;;;;;5.88;5.38;;;;;;;;;;5044755;28;20287;-93
2023/04/23 06:07:34;;;;;;;6.93;6.23;;;;;;;;;;5047362;28;20314;-92
2023/04/23 06:10:02;;;;;;;7.37;6.10;;;;;;;;;;5037184;28;20212;-92
2023/04/23 06:12:29;;;;;;;7.07;5.93;;;;;;;;;;5045433;28;20223;-92
2023/04/23 06:14:56;;;;;;;6.70;6.00;;;;;;;;;;5037884;28;20199;-93
2023/04/23 06:17:25;;;;;;;7.15;6.45;;;;;;;;;;5047476;28;20200;-92
2023/04/23 06:19:52;;;;;;;6.60;6.00;;;;;;;;;;5046729;28;20209;-93
2023/04/23 06:22:19;;;;;;;5.95;5.43;;;;;;;;;;5048890;28;20211;-90
2023/04/23 06:24:47;;;;;;;6.65;5.97;;;;;;;;;;5047296;28;20203;-92
2023/04/23 06:27:14;;;;;;;7.18;6.00;;;;;;;;;;5047731;28;20203;-91
2023/04/23 06:29:41;;;;;;;5.83;5.23;;;;;;;;;;5048938;28;20212;-93
2023/04/23 06:32:09;;;;;;;5.55;5.05;;;;;;;;;;5047614;28;20232;-92
2023/04/23 06:34:38;;;;;;;5.70;5.13;;;;;;;;;;5037943;28;20214;-92
2023/04/23 06:37:05;;;;;;;5.40;4.90;;;;;;;;;;5053147;28;20205;-92
2023/04/23 06:39:32;;;;;;;4.93;4.43;;;;;;;;;;5038954;28;20199;-93
2023/04/23 06:42:00;;;;;;;5.07;4.57;;;;;;;;;;5048824;28;20231;-93
2023/04/23 06:44:28;;;;;;;6.45;4.95;;;;;;;;;;5047370;28;20278;-92
2023/04/23 06:46:55;;;;;;;6.38;4.90;;;;;;;;;;5053066;28;20203;-93
2023/04/23 06:49:22;;;;;;;6.23;4.57;;;;;;;;;;5051761;28;20282;-91
2023/04/23 06:51:51;;;;;;;6.27;3.90;;;;;;;;;;5046840;28;20253;-92
2023/04/23 06:54:18;;;;;;;4.85;4.35;;;;;;;;;;5047446;28;20208;-92
2023/04/23 06:56:45;;;;;;;5.18;4.40;;;;;;;;;;5041590;28;20294;-92
2023/04/23 06:59:13;;;;;;;5.97;5.03;;;;;;;;;;5044487;28;20209;-92
2023/04/23 07:01:40;;;;;;;6.07;4.15;;;;;;;;;;5039475;28;20329;-93
2023/04/23 07:04:07;;;;;;;4.60;4.07;;;;;;;;;;5047198;28;20200;-92
2023/04/23 07:06:35;;;;;;;5.20;4.63;;;;;;;;;;5047141;28;20203;-92
2023/04/23 07:09:05;;;;;;;4.78;3.83;;;;;;;;;;5047453;28;20204;-92
2023/04/23 07:11:33;;;;;;;8.00;4.57;;;;;;;;;;5046263;28;20319;-93
2023/04/23 07:14:01;;;;;;;5.15;4.18;;;;;;;;;;5042896;28;20206;-91
2023/04/23 07:16:32;;;;;;;4.45;4.03;;;;;;;;;;5049550;28;20210;-93
2023/04/23 07:19:00;;;;;;;7.32;4.25;;;;;;;;;;5049031;28;20230;-91
2023/04/23 07:21:27;;;;;;;5.38;3.38;;;;;;;;;;5042060;28;20242;-92
2023/04/23 07:23:55;;;;;;;8.85;3.60;;;;;;;;;;5048020;28;20203;-92
2023/04/23 07:26:26;;;;;;;4.07;3.22;;;;;;;;;;5051418;28;20200;-94
2023/04/23 07:28:53;;;;;;;5.40;3.60;;;;;;;;;;5042982;28;20200;-91
2023/04/23 07:31:20;;;;;;;3.90;3.47;;;;;;;;;;5044804;28;20242;-93
2023/04/23 07:33:48;;;;;;;4.32;3.92;;;;;;;;;;5054404;28;20199;-92
2023/04/23 07:36:15;;;;;;;5.32;3.22;;;;;;;;;;5054874;28;20207;-93
2023/04/23 07:38:42;;;;;;;3.53;3.22;;;;;;;;;;5052060;28;20290;-93
2023/04/23 07:41:10;;;;;;;4.30;3.90;;;;;;;;;;5049583;28;20214;-92
2023/04/23 07:43:39;;;;;;;5.25;3.80;;;;;;;;;;5052513;28;20203;-93
2023/04/23 07:46:08;;;;;;;5.05;4.00;;;;;;;;;;5050482;28;20264;-92
2023/04/23 07:48:35;;;;;;;4.18;3.70;;;;;;;;;;5046697;28;20222;-92
2023/04/23 07:51:03;;;;;;;3.42;3.08;;;;;;;;;;5047244;28;20203;-92
2023/04/23 07:53:30;;;;;;;7.72;3.10;;;;;;;;;;5043616;28;20282;-89
2023/04/23 07:55:57;;;;;;;3.90;2.97;;;;;;;;;;5045184;28;20203;-92
2023/04/23 07:58:25;;;;;;;4.25;2.85;;;;;;;;;;5043030;28;20245;-93
2023/04/23 08:00:53;;;;;;;5.15;2.55;;;;;;;;;;5048887;28;20343;-91
2023/04/23 08:03:21;;;;;;;4.10;2.88;;;;;;;;;;5051352;28;20229;-92
2023/04/23 08:05:48;;;;;;;3.50;3.15;;;;;;;;;;5046826;28;20222;-91
2023/04/23 08:08:16;;;;;;;4.20;2.88;;;;;;;;;;5044776;28;20259;-91
2023/04/23 08:10:43;;;;;;;4.90;3.22;;;;;;;;;;5047653;28;20206;-92
2023/04/23 08:13:10;;;;;;;3.85;2.90;;;;;;;;;;5050839;28;20213;-91
2023/04/23 08:15:38;;;;;;;4.97;2.80;;;;;;;;;;5043859;28;20275;-92
2023/04/23 08:18:07;;;;;;;5.40;3.20;;;;;;;;;;5050766;28;20239;-92
2023/04/23 08:20:34;;;;;;;3.72;2.45;;;;;;;;;;5046920;28;20204;-92
2023/04/23 08:23:02;;;;;;;2.97;2.55;;;;;;;;;;5046999;28;20219;-89
2023/04/23 08:25:31;;;;;;;3.15;2.85;;;;;;;;;;5045484;28;20196;-93
2023/04/23 08:27:59;;;;;;;5.28;2.65;;;;;;;;;;5041111;28;20235;-93
2023/04/23 08:30:26;;;;;;;6.22;2.95;;;;;;;;;;5049965;28;20242;-93
2023/04/23 08:32:54;;;;;;;4.20;2.92;;;;;;;;;;5049629;28;20200;-90
2023/04/23 08:35:23;;;;;;;3.60;2.83;;;;;;;;;;5046246;28;20202;-91
2023/04/23 08:37:50;;;;;;;4.00;2.88;;;;;;;;;;5045107;28;20212;-93
2023/04/23 08:40:17;;;;;;;5.32;2.90;;;;;;;;;;5040732;28;20212;-93
2023/04/23 08:42:47;;;;;;;3.33;2.55;;;;;;;;;;5053331;28;20247;-90
2023/04/23 08:45:14;;;;;;;3.60;2.47;;;;;;;;;;5049230;28;20200;-94
2023/04/23 08:47:43;;;;;;;2.78;2.30;;;;;;;;;;5051737;28;20265;-95
2023/04/23 08:50:12;;;;;;;5.97;2.60;;;;;;;;;;5052374;28;20206;-91
2023/04/23 08:52:41;;;;;;;3.00;2.65;;;;;;;;;;5043983;28;20215;-92
2023/04/23 08:55:10;;;;;;;3.80;2.35;;;;;;;;;;5046125;28;20208;-91
2023/04/23 08:57:38;;;;;;;4.57;2.60;;;;;;;;;;5039405;28;20203;-91
2023/04/23 09:00:07;;;;;;;6.32;4.35;;;;;;;;;;5046728;28;20208;-92
2023/04/23 09:02:34;;;;;;;3.75;2.88;;;;;;;;;;5048864;28;20310;-93
2023/04/23 09:05:03;;;;;;;3.90;2.40;;;;;;;;;;5045841;28;20230;-90
2023/04/23 09:07:31;;;;;;;2.63;2.42;;;;;;;;;;5049114;28;20207;-90
2023/04/23 09:09:59;;;;;;;3.80;2.38;;;;;;;;;;5047560;28;20263;-93
2023/04/23 09:12:27;;;;;;;3.35;2.25;;;;;;;;;;5041674;28;20197;-89
2023/04/23 09:14:54;;;;;;;3.58;2.30;;;;;;;;;;5044170;28;20210;-90
2023/04/23 09:17:23;;;;;;;2.95;2.10;;;;;;;;;;5050171;28;20211;-90
2023/04/23 09:19:51;;;;;;;3.55;2.40;;;;;;;;;;5043847;28;20200;-91
2023/04/23 09:22:38;;;;;;;6.30;2.58;;;;;;;;;;5054148;28;20298;-91
2023/04/23 09:25:09;;;;;;;3.72;2.20;;;;;;;;;;5049136;28;20210;-93
2023/04/23 09:27:36;;;;;;;4.28;2.33;;;;;;;;;;5047182;28;20202;-92
2023/04/23 09:30:06;;;;;;;3.55;2.33;;;;;;;;;;5044704;28;20304;-93
2023/04/23 09:32:34;;;;;;;3.88;2.40;;;;;;;;;;5050039;28;20211;-91
2023/04/23 09:35:03;;;;;;;6.35;3.10;;;;;;;;;;5051107;28;20258;-95
2023/04/23 09:37:31;;;;;;;3.88;2.63;;;;;;;;;;5058314;28;20208;-95
2023/04/23 09:40:03;;;;;;;4.43;2.53;;;;;;;;;;5042178;28;20231;-92
2023/04/23 09:42:34;;;;;;;3.15;2.08;;;;;;;;;;5046633;28;20227;-96
2023/04/23 09:45:01;;;;;;;3.35;2.17;;;;;;;;;;5042068;28;20204;-91
2023/04/23 09:47:32;;;;;;;2.92;2.35;;;;;;;;;;5041991;28;20207;-90
2023/04/23 09:50:00;;;;;;;3.13;2.22;;;;;;;;;;5040071;28;20264;-92
2023/04/23 09:52:28;;;;;;;3.60;2.05;;;;;;;;;;5049408;28;20215;-91
2023/04/23 09:54:58;;;;;;;3.20;2.35;;;;;;;;;;5045059;28;20200;-92
2023/04/23 09:57:25;;;;;;;4.60;2.30;;;;;;;;;;5048082;28;20196;-92
2023/04/23 09:59:55;;;;;;;3.70;2.13;;;;;;;;;;5043490;28;20214;-92
2023/04/23 10:02:27;;;;;;;4.40;2.05;;;;;;;;;;5050201;28;20254;-91
2023/04/23 10:04:55;;;;;;;7.07;2.35;;;;;;;;;;5048764;28;20383;-90
2023/04/23 10:07:23;;;;;;;2.92;2.20;;;;;;;;;;5036434;28;20218;-91
2023/04/23 10:09:51;;;;;;;4.35;2.20;;;;;;;;;;5042844;28;20314;-91
2023/04/23 10:12:18;;;;;;;6.40;2.35;;;;;;;;;;5036494;28;20337;-91
2023/04/23 10:14:49;;;;;;;4.45;2.35;;;;;;;;;;5046244;28;20219;-90
2023/04/23 10:17:18;;;;;;;3.65;2.15;;;;;;;;;;5044206;28;20203;-89
2023/04/23 10:19:46;;;;;;;5.22;2.25;;;;;;;;;;5038406;28;20203;-91
2023/04/23 10:22:14;;;;;;;4.28;2.20;;;;;;;;;;5048544;28;20196;-90
2023/04/23 10:24:41;;;;;;;2.00;1.90;;;;;;;;;;5061000;28;20204;-91
2023/04/23 10:27:12;;;;;;;2.92;2.13;;;;;;;;;;5057256;28;20208;-90
2023/04/23 10:29:40;;;;;;;4.43;1.92;;;;;;;;;;5045170;28;20207;-93
2023/04/23 10:32:08;;;;;;;3.78;1.80;;;;;;;;;;5047315;28;20223;-92
2023/04/23 10:34:37;;;;;;;3.03;1.70;;;;;;;;;;5042218;28;20204;-91
2023/04/23 10:37:04;;;;;;;3.70;1.75;;;;;;;;;;5037321;28;20282;-92
2023/04/23 10:39:33;;;;;;;3.25;1.85;;;;;;;;;;5039334;28;20272;-91
2023/04/23 10:42:01;;;;;;;5.15;2.50;;;;;;;;;;5039588;28;20204;-90
2023/04/23 10:44:34;;;;;;;6.13;2.13;;;;;;;;;;5043941;28;20200;-90
2023/04/23 10:47:02;;;;;;;3.65;1.98;;;;;;;;;;5044953;28;20294;-91
2023/04/23 10:49:31;;;;;;;2.35;2.10;;;;;;;;;;5045953;28;20206;-90
2023/04/23 10:52:04;;;;;;;3.80;1.80;;;;;;;;;;5038798;28;20284;-90
2023/04/23 10:54:31;;;;;;;3.22;2.15;;;;;;;;;;5047047;28;20204;-90
2023/04/23 10:57:00;;;;;;;2.38;1.80;;;;;;;;;;5048950;28;20200;-90
2023/04/23 10:59:29;;;;;;;3.78;1.70;;;;;;;;;;5037831;28;20227;-91
2023/04/23 11:01:58;;;;;;;3.38;1.83;;;;;;;;;;5051709;28;20206;-91
2023/04/23 11:04:27;;;;;;;2.85;1.60;;;;;;;;;;5041380;28;20227;-90
2023/04/23 11:06:55;;;;;;;2.28;1.70;;;;;;;;;;5040393;28;20211;-89
2023/04/23 11:09:31;;;;;;;2.10;1.92;;;;;;;;;;5044988;28;20200;-90
2023/04/23 11:12:00;;;;;;;5.10;2.75;;;;;;;;;;5049093;28;20199;-90
2023/04/23 11:14:37;;;;;;;2.97;2.63;;;;;;;;;;5046723;28;20214;-90
2023/04/23 11:17:05;;;;;;;5.47;2.75;;;;;;;;;;5048333;28;20286;-89
2023/04/23 11:19:35;;;;;;;2.58;2.30;;;;;;;;;;5039955;28;20219;-90
2023/04/23 11:22:04;;;;;;;3.15;2.85;;;;;;;;;;5049223;28;20203;-92
2023/04/23 11:24:35;;;;;;;4.78;2.20;;;;;;;;;;5051199;28;20269;-91
2023/04/23 11:27:05;;;;;;;2.33;2.10;;;;;;;;;;5047741;28;20294;-92
2023/04/23 11:29:33;;;;;;;3.40;2.40;;;;;;;;;;5039621;28;20207;-91
2023/04/23 11:32:00;;;;;;;2.40;2.20;;;;;;;;;;5047319;28;20367;-89
2023/04/23 11:34:29;;;;;;;5.25;3.15;;;;;;;;;;5045430;28;20214;-89
2023/04/23 11:36:58;;;;;;;2.13;1.90;;;;;;;;;;5042880;28;20286;-91
2023/04/23 11:39:25;;;;;;;4.05;1.80;;;;;;;;;;5045626;28;20215;-89
2023/04/23 11:41:55;;;;;;;2.20;2.00;;;;;;;;;;5049977;28;20212;-87
2023/04/23 11:44:23;;;;;;;2.42;1.65;;;;;;;;;;5052024;28;20293;-88
2023/04/23 11:46:50;;;;;;;4.18;1.77;;;;;;;;;;5049937;28;20200;-88
2023/04/23 11:49:19;;;;;;;1.83;1.70;;;;;;;;;;5048547;28;20204;-88
2023/04/23 11:51:46;;;;;;;3.65;2.00;;;;;;;;;;5047729;28;20208;-88
2023/04/23 11:54:15;;;;;;;2.78;1.98;;;;;;;;;;5037265;28;20204;-88
2023/04/23 11:56:42;;;;;;;3.17;2.00;;;;;;;;;;5040574;28;20285;-89
2023/04/23 11:59:11;;;;;;;7.20;2.03;;;;;;;;;;5044326;28;20246;-88
2023/04/23 12:01:43;;;;;;;2.47;1.90;;;;;;;;;;5042797;28;20217;-88
2023/04/23 12:04:11;;;;;;;2.58;2.00;;;;;;;;;;5042904;28;20220;-88
2023/04/23 12:06:39;;;;;;;2.65;2.00;;;;;;;;;;5044769;28;20231;-88
2023/04/23 12:09:07;;;;;;;3.35;1.92;;;;;;;;;;5043049;28;20273;-88
2023/04/23 12:11:35;;;;;;;2.42;1.92;;;;;;;;;;5036876;28;20222;-88
2023/04/23 12:14:02;;;;;;;2.65;1.80;;;;;;;;;;5048929;28;20234;-87
2023/04/23 12:16:38;;;;;;;2.78;1.60;;;;;;;;;;5043905;28;20286;-87
2023/04/23 12:19:08;;;;;;;2.03;1.70;;;;;;;;;;5043642;28;20279;-88
2023/04/23 12:21:36;;;;;;;2.75;1.85;;;;;;;;;;5053821;28;20203;-87
2023/04/23 12:24:05;;;;;;;1.98;1.70;;;;;;;;;;5046270;28;20318;-88
2023/04/23 12:26:33;;;;;;;3.72;1.60;;;;;;;;;;5039956;28;20208;-87
2023/04/23 12:29:00;;;;;;;2.88;2.00;;;;;;;;;;5048629;28;20208;-88
2023/04/23 12:31:29;;;;;;;3.05;1.90;;;;;;;;;;5038402;28;20235;-89
2023/04/23 12:34:02;;;;;;;3.50;1.90;;;;;;;;;;5051088;28;20204;-88
2023/04/23 12:36:30;;;;;;;2.50;1.60;;;;;;;;;;5036089;28;20273;-88
2023/04/23 12:39:12;;;;;;;2.53;1.80;;;;;;;;;;5047954;28;20191;-89
2023/04/23 12:41:40;;;;;;;2.55;1.45;;;;;;;;;;5045762;28;20213;-88
2023/04/23 12:44:07;;;;;;;4.43;1.70;;;;;;;;;;5049856;28;20227;-88
2023/04/23 12:46:34;;;;;;;2.80;1.70;;;;;;;;;;5054208;28;20204;-88
2023/04/23 12:49:03;;;;;;;2.33;1.63;;;;;;;;;;5046010;28;20200;-88
2023/04/23 12:51:30;;;;;;;2.80;1.73;;;;;;;;;;5045661;28;20214;-88
2023/04/23 12:53:58;;;;;;;2.00;1.58;;;;;;;;;;5040526;28;20204;-87
2023/04/23 12:56:25;;;;;;;1.65;1.40;;;;;;;;;;5051266;28;20282;-87
2023/04/23 12:58:52;;;;;;;1.63;1.30;;;;;;;;;;5052649;28;20297;-87
2023/04/23 13:01:19;;;;;;;2.95;1.35;;;;;;;;;;5041630;28;20204;-88
2023/04/23 13:03:47;;;;;;;1.23;1.13;;;;;;;;;;5041750;28;20232;-88
2023/04/23 13:06:15;;;;;;;1.30;1.20;;;;;;;;;;5048587;28;20199;-88
2023/04/23 13:08:42;;;;;;;1.48;1.33;;;;;;;;;;5042139;28;20228;-87
2023/04/23 13:11:10;;;;;;;1.35;1.25;;;;;;;;;;5052248;28;20206;-91
2023/04/23 13:13:38;;;;;;;1.60;1.20;;;;;;;;;;5048852;28;20321;-90
2023/04/23 13:16:05;;;;;;;2.20;1.20;;;;;;;;;;5047307;28;20210;-90
2023/04/23 13:18:33;;;;;;;1.23;1.13;;;;;;;;;;5037705;28;20205;-87
2023/04/23 13:21:00;;;;;;;1.73;1.10;;;;;;;;;;5040524;28;20208;-88
2023/04/23 13:23:29;;;;;;;2.45;1.20;;;;;;;;;;5048313;28;20232;-87
2023/04/23 13:25:56;;;;;;;1.30;1.20;;;;;;;;;;5050731;28;20196;-88
2023/04/23 13:28:24;;;;;;;2.55;1.30;;;;;;;;;;5045635;28;20202;-86
2023/04/23 13:30:51;;;;;;;1.70;1.20;;;;;;;;;;5052374;28;20235;-86
2023/04/23 13:33:19;;;;;;;1.25;1.15;;;;;;;;;;5045105;28;20207;-86
2023/04/23 13:35:47;;;;;;;1.00;1.00;;;;;;;;;;5045013;28;20210;-87
2023/04/23 13:38:14;;;;;;;1.45;1.10;;;;;;;;;;5049381;28;20214;-87
2023/04/23 13:40:43;;;;;;;2.80;1.13;;;;;;;;;;5046504;28;20206;-86
2023/04/23 13:43:10;;;;;;;1.85;1.00;;;;;;;;;;5053318;28;20203;-85
2023/04/23 13:45:38;;;;;;;1.27;1.17;;;;;;;;;;5051727;28;20283;-86
2023/04/23 13:48:06;;;;;;;1.92;0.90;;;;;;;;;;5037499;28;20207;-86
2023/04/23 13:50:33;;;;;;;1.05;1.00;;;;;;;;;;5052714;28;20207;-87
2023/04/23 13:53:01;;;;;;;1.55;1.05;;;;;;;;;;5044310;28;20237;-88
2023/04/23 13:55:28;;;;;;;1.95;1.00;;;;;;;;;;5051793;28;20202;-87
2023/04/23 13:57:57;;;;;;;1.77;1.10;;;;;;;;;;5038064;28;20204;-89
2023/04/23 14:00:25;;;;;;;1.65;1.10;;;;;;;;;;5046774;28;20226;-86
2023/04/23 14:02:52;;;;;;;1.63;1.10;;;;;;;;;;5045043;28;20199;-88
2023/04/23 14:05:20;;;;;;;1.08;1.08;;;;;;;;;;5044708;28;20242;-89
2023/04/23 14:07:47;;;;;;;1.27;1.00;;;;;;;;;;5038471;28;20216;-91
2023/04/23 14:10:15;;;;;;;1.67;0.98;;;;;;;;;;5051193;28;20207;-92
2023/04/23 14:12:42;;;;;;;1.20;1.10;;;;;;;;;;5041585;28;20294;-95
2023/04/23 14:15:12;;;;;;;1.40;1.02;;;;;;;;;;5050160;28;20203;-88
2023/04/23 14:17:41;;;;;;;1.85;1.73;;;;;;;;;;5048889;28;20226;-90
2023/04/23 14:20:09;;;;;;;2.15;1.25;;;;;;;;;;5042800;28;20200;-95
2023/04/23 14:22:36;;;;;;;1.75;1.20;;;;;;;;;;5045874;28;20231;-92
2023/04/23 14:25:05;;;;;;;1.30;1.10;;;;;;;;;;5041407;28;20299;-93
2023/04/23 14:27:33;;;;;;;1.13;1.00;;;;;;;;;;5042864;28;20203;-92
2023/04/23 14:30:04;;;;;;;2.33;1.08;;;;;;;;;;5042808;28;20191;-90
2023/04/23 14:32:33;;;;;;;1.92;0.90;;;;;;;;;;5041114;28;20211;-89
2023/04/23 14:35:02;;;;;;;1.33;1.10;;;;;;;;;;5045082;28;20208;-90
2023/04/23 14:37:29;;;;;;;2.22;1.63;;;;;;;;;;5037329;28;20222;-91
2023/04/23 14:39:57;;;;;;;1.42;1.30;;;;;;;;;;5048392;28;20211;-90
2023/04/23 14:42:24;;;;;;;2.17;1.50;;;;;;;;;;5037751;28;20205;-90
2023/04/23 14:44:55;;;;;;;2.55;1.20;;;;;;;;;;5039030;28;20251;-90